Time;durP1;ratioP1;P1;durP2;ratioP2;P2;SDS_P1;SDS_P2;PMS_P1;PMS_P2;Temp;Humidity;BMP_temperature;BMP_pressure;BME280_temperature;BME280_humidity;BME280_pressure;Samples;Min_cycle;Max_cycle;Signal;HPM_P1;HPM_P2
2023/09/23 00:01:46;;;;;;;7.38;5.20;;;;;;;-144.05;82.62;56935.91;5063895;28;20414;-83
2023/09/23 00:04:12;;;;;;;6.65;4.35;;;11.90;99.90;;;-144.05;83.41;56942.28;5058407;28;20032;-81
2023/09/23 00:06:38;;;;;;;7.45;4.57;;;9.20;99.90;;;-144.05;82.49;56931.66;5066684;28;20020;-83
2023/09/23 00:09:04;;;;;;;8.10;4.60;;;;;;;-144.05;82.86;56946.53;5077862;28;20512;-81
2023/09/23 00:11:30;;;;;;;6.55;4.43;;;;;;;-144.05;82.24;56948.66;5080147;28;20615;-81
2023/09/23 00:13:56;;;;;;;7.15;4.95;;;15.30;99.90;;;-144.05;82.05;56906.19;5081371;28;20174;-82
2023/09/23 00:16:22;;;;;;;7.10;5.45;;;15.20;99.90;;;-144.05;82.57;56906.19;5087847;28;20032;-81
2023/09/23 00:18:48;;;;;;;7.75;5.90;;;14.80;99.90;;;-144.05;84.07;56942.28;5069230;28;20466;-82
2023/09/23 00:21:15;;;;;;;11.55;5.60;;;9.70;99.90;;;-144.05;84.45;56904.06;5066267;28;20025;-82
2023/09/23 00:23:41;;;;;;;8.07;5.72;;;14.70;99.90;;;-144.05;84.29;56946.53;5078806;28;20512;-81
2023/09/23 00:26:07;;;;;;;6.60;4.82;;;;;;;-144.05;84.04;56940.16;5062906;28;20059;-81
2023/09/23 00:28:33;;;;;;;10.55;5.60;;;9.10;99.90;;;-144.05;84.05;56921.06;5062325;28;20033;-81
2023/09/23 00:31:14;;;;;;;8.90;5.53;;;9.30;99.90;;;-144.05;83.42;56946.53;5084195;28;20485;-80
2023/09/23 00:33:44;;;;;;;9.05;5.25;;;9.00;99.90;;;-144.05;83.61;56929.53;5081296;28;20028;-80
2023/09/23 00:36:10;;;;;;;7.95;5.10;;;12.90;99.90;;;-144.05;83.88;56914.69;5066207;28;20028;-82
2023/09/23 00:38:38;;;;;;;8.80;5.15;;;14.80;99.90;;;-144.05;84.00;56933.78;5078046;28;20040;-83
2023/09/23 00:41:06;;;;;;;7.05;5.00;;;;;;;-144.05;83.97;56933.78;5077500;28;20025;-83
2023/09/23 00:43:33;;;;;;;10.00;5.43;;;14.50;99.90;;;-144.05;84.16;56927.41;5073545;28;20029;-82
2023/09/23 00:46:03;;;;;;;6.65;5.20;;;11.70;99.90;;;-144.05;83.87;56933.78;5077963;28;20030;-82
2023/09/23 00:48:42;;;;;;;7.97;4.95;;;14.60;99.90;;;-144.05;83.44;56938.03;5075027;28;20025;-82
2023/09/23 00:51:10;;;;;;;7.75;4.88;;;8.90;99.90;;;-144.05;83.52;56938.03;5079382;28;20033;-84
2023/09/23 00:53:40;;;;;;;7.75;4.80;;;9.00;99.90;;;-144.05;83.18;56933.78;5079756;28;20124;-80
2023/09/23 00:56:09;;;;;;;6.65;4.57;;;11.80;99.90;;;-144.05;83.11;56957.16;5098044;28;20028;-81
2023/09/23 00:58:38;;;;;;;7.18;4.15;;;15.10;99.90;;;-144.05;82.79;56950.78;5082200;28;20025;-82
2023/09/23 01:01:08;;;;;;;6.47;4.45;;;;;;;-144.05;83.26;56974.16;5091089;28;20183;-81
2023/09/23 01:03:38;;;;;;;9.25;4.88;;;;;;;-144.05;82.52;56942.28;5077232;28;20024;-81
2023/09/23 01:06:15;;;;;;;5.28;4.20;;;9.00;99.90;;;-144.05;82.60;56961.41;5070049;28;20090;-81
2023/09/23 01:08:46;;;;;;;5.63;4.85;;;8.90;99.90;;;-144.05;81.56;56938.03;5077969;28;20119;-79
2023/09/23 01:11:13;;;;;;;8.32;4.70;;;15.10;99.90;;;-144.05;80.74;56940.16;5066614;28;20029;-84
2023/09/23 01:13:42;;;;;;;8.10;4.63;;;14.70;99.90;;;-144.05;80.71;56921.06;5064241;28;20327;-83
2023/09/23 01:16:13;;;;;;;6.97;4.53;;;12.00;99.90;;;-144.05;80.25;56929.53;5066888;28;20017;-82
2023/09/23 01:18:45;;;;;;;7.05;4.25;;;14.90;99.90;;;-144.05;80.42;56946.53;5083820;28;20076;-84
2023/09/23 01:21:12;;;;;;;6.20;4.40;;;;;;;-144.05;81.13;56927.41;5068539;28;20099;-83
2023/09/23 01:23:39;;;;;;;6.82;4.13;;;;;;;-144.05;80.44;56950.78;5083001;28;20389;-82
2023/09/23 01:26:05;;;;;;;5.50;3.83;;;9.10;99.90;;;-144.05;79.74;56921.06;5068340;28;20028;-82
2023/09/23 01:28:33;;;;;;;6.68;3.92;;;9.50;99.90;;;-144.05;79.57;56938.03;5081455;28;20060;-82
2023/09/23 01:31:03;;;;;;;5.55;4.25;;;15.20;99.90;;;-144.05;78.75;56961.41;5088424;28;20095;-84
2023/09/23 01:33:29;;;;;;;4.32;3.85;;;15.10;99.90;;;-144.05;78.89;56933.78;5089137;28;20032;-83
2023/09/23 01:36:02;;;;;;;7.90;3.58;;;15.00;99.90;;;-144.05;78.62;56955.03;5089942;28;20021;-80
2023/09/23 01:38:30;;;;;;;5.65;3.60;;;15.10;99.90;;;-144.05;78.59;56933.78;5088812;28;20035;-80
2023/09/23 01:40:56;;;;;;;5.40;2.97;;;9.00;99.90;;;-144.05;78.27;56925.28;5081065;28;20035;-81
2023/09/23 01:43:21;;;;;;;3.30;2.92;;;14.60;99.90;;;-144.05;78.23;56921.06;5073040;28;20033;-81
2023/09/23 01:45:48;;;;;;;4.38;3.53;;;15.00;99.90;;;-144.05;77.95;56952.91;5079990;28;20035;-81
2023/09/23 01:48:15;;;;;;;5.85;3.03;;;9.60;99.90;;;-144.05;79.08;56931.66;5060645;28;20043;-81
2023/09/23 01:50:41;;;;;;;4.13;2.90;;;14.70;99.90;;;-144.05;78.96;56925.28;5057717;28;20078;-83
2023/09/23 01:53:08;;;;;;;8.45;3.20;;;14.50;99.90;;;-144.05;79.57;56908.31;5059719;28;20033;-81
2023/09/23 01:55:34;;;;;;;3.75;2.30;;;8.80;99.90;;;-144.05;79.25;56918.94;5074904;28;20108;-81
2023/09/23 01:58:01;;;;;;;5.00;2.63;;;14.60;99.90;;;-144.05;78.88;56940.16;5058078;28;20052;-83
2023/09/23 02:00:29;;;;;;;3.33;2.42;;;14.90;99.90;;;-144.05;79.33;56952.91;5057269;28;20025;-81
2023/09/23 02:02:56;;;;;;;6.72;3.00;;;11.50;99.90;;;-144.05;80.23;56942.28;5095449;22;20048;-88
2023/09/23 02:05:27;;;;;;;5.43;2.55;;;14.70;99.90;;;-144.05;80.59;56927.41;5116392;28;20115;-86
2023/09/23 02:07:54;;;;;;;3.10;2.28;;;14.40;99.90;;;-144.05;79.92;56938.03;5083733;28;20044;-85
2023/09/23 02:10:24;;;;;;;2.65;2.08;;;;;;;-144.05;80.24;56929.53;5082931;28;20032;-87
2023/09/23 02:12:50;;;;;;;3.70;2.03;;;14.30;99.90;;;-144.05;80.19;56923.19;5080719;28;20040;-85
2023/09/23 02:15:16;;;;;;;3.58;2.30;;;14.30;99.90;;;-144.05;80.24;56940.16;5086838;28;20035;-85
2023/09/23 02:17:49;;;;;;;4.97;2.25;;;11.40;99.90;;;-144.05;81.07;56931.66;5102194;28;20607;-83
2023/09/23 02:22:49;;;;;;;3.10;2.45;;;14.60;99.90;;;-144.05;81.17;56935.91;5080427;28;20024;-86
2023/09/23 02:25:16;;;;;;;3.55;2.15;;;10.40;99.90;;;-144.05;81.69;56935.91;5095308;28;20055;-87
2023/09/23 02:27:45;;;;;;;4.40;2.53;;;11.30;99.90;;;-144.05;82.02;56929.53;5077775;28;20125;-88
2023/09/23 02:30:15;;;;;;;5.35;2.35;;;14.70;99.90;;;-144.05;82.46;56925.28;5079231;28;20059;-86
2023/09/23 02:32:46;;;;;;;4.20;2.60;;;14.50;99.90;;;-144.05;81.08;56959.28;5077131;28;20040;-86
2023/09/23 02:35:16;;;;;;;6.97;2.97;;;8.30;99.90;;;-144.05;81.67;56921.06;5069097;28;20099;-87
2023/09/23 02:37:48;;;;;;;4.97;2.53;;;9.10;99.90;;;-144.05;80.69;56925.28;5097972;28;20386;-86
2023/09/23 02:40:14;;;;;;;5.40;2.90;;;;;;;-144.05;81.46;56912.56;5080866;28;20024;-88
2023/09/23 02:42:43;;;;;;;4.88;3.40;;;;;;;-144.05;81.56;56955.03;5078154;28;20060;-88
2023/09/23 02:45:13;;;;;;;8.65;3.88;;;11.30;99.90;;;-144.05;82.61;56925.28;5078410;28;20440;-86
2023/09/23 02:47:42;;;;;;;4.57;3.30;;;15.10;99.90;;;-144.05;81.66;56935.91;5081853;28;20480;-87
2023/09/23 02:50:10;;;;;;;5.20;3.85;;;9.10;99.90;;;-144.05;81.38;56944.41;5080469;28;20465;-88
2023/09/23 02:52:49;;;;;;;6.80;4.38;;;9.00;99.90;;;-144.05;82.42;56914.69;5077092;28;20029;-87
2023/09/23 02:55:16;;;;;;;4.93;3.83;;;;;;;-144.05;81.16;56959.28;5078688;28;20077;-88
2023/09/23 02:57:54;;;;;;;7.22;4.47;;;11.50;99.90;;;-144.05;82.02;56931.66;5080986;28;20036;-88
2023/09/23 03:00:23;;;;;;;8.00;4.97;;;9.10;99.90;;;-144.05;82.71;56931.66;5078454;28;20052;-86
2023/09/23 03:02:56;;;;;;;9.32;4.75;;;11.50;99.90;;;-144.05;82.11;56931.66;5073522;28;20036;-87
2023/09/23 03:05:31;;;;;;;13.13;5.75;;;11.50;99.90;;;-144.05;82.09;56933.78;5078430;28;20502;-87
2023/09/23 03:07:59;;;;;;;9.40;5.60;;;11.60;99.90;;;-144.05;81.94;56925.28;5094138;28;20346;-88
2023/09/23 03:10:39;;;;;;;10.13;5.40;;;11.50;99.90;;;-144.05;81.97;56935.91;5094874;28;20402;-87
2023/09/23 03:13:11;;;;;;;7.70;5.10;;;14.30;99.90;;;-144.05;81.81;56933.78;5078137;28;20024;-85
2023/09/23 03:18:27;;;;;;;12.50;5.32;;;;;;;-144.05;81.71;56938.03;5079383;28;20028;-89
2023/09/23 03:20:55;;;;;;;9.38;5.53;;;14.60;99.90;;;-144.05;81.77;56942.28;5077499;28;20036;-90
2023/09/23 03:23:23;;;;;;;7.70;5.50;;;;;;;-144.05;81.50;56944.41;5090824;28;20082;-89
2023/09/23 03:25:51;;;;;;;11.35;5.30;;;8.90;99.90;;;-144.05;81.52;56957.16;5104978;28;20440;-88
2023/09/23 03:28:17;;;;;;;7.53;5.00;;;11.60;99.90;;;-144.05;81.20;56955.03;5076526;28;20029;-90
2023/09/23 03:30:49;;;;;;;11.38;5.65;;;8.90;99.90;;;-144.05;81.43;56938.03;5083046;28;20057;-88
2023/09/23 03:33:19;;;;;;;7.60;5.00;;;11.70;99.90;;;-144.05;81.29;56931.66;5081520;28;20035;-87
2023/09/23 03:35:45;;;;;;;10.43;5.05;;;15.10;99.90;;;-144.05;80.89;56942.28;5080406;28;20504;-88
2023/09/23 03:38:11;;;;;;;8.18;4.15;;;14.80;99.90;;;-144.05;81.21;56935.91;5113632;28;20135;-88
2023/09/23 03:40:38;;;;;;;6.97;4.13;;;11.80;99.90;;;-144.05;80.45;56910.44;5082279;28;20024;-88
2023/09/23 03:43:05;;;;;;;6.35;4.05;;;8.50;99.90;;;-144.05;80.99;56948.66;5079836;28;20117;-86
2023/09/23 03:45:40;;;;;;;6.63;3.92;;;11.70;99.90;;;-144.05;80.67;56935.91;5083295;28;20032;-88
2023/09/23 03:48:06;;;;;;;10.82;4.38;;;;;;;-144.05;81.16;56921.06;5084625;28;20151;-90
2023/09/23 03:50:35;;;;;;;7.13;3.63;;;14.60;99.90;;;-144.05;80.67;56946.53;5104485;28;20036;-87
2023/09/23 03:53:01;;;;;;;8.73;3.75;;;15.10;99.90;;;-144.05;80.31;56927.41;5096613;28;20040;-84
2023/09/23 03:55:28;;;;;;;6.15;3.65;;;11.60;99.90;;;-144.05;80.77;56914.69;5114283;28;20032;-86
2023/09/23 03:57:54;;;;;;;9.48;4.20;;;11.60;99.90;;;-144.05;80.99;56912.56;5113679;28;20013;-84
2023/09/23 04:00:21;;;;;;;6.85;2.72;;;;;;;-144.05;80.68;56938.03;5099840;28;20029;-86
2023/09/23 04:02:47;;;;;;;6.88;3.33;;;14.40;99.90;;;-144.05;80.70;56940.16;5081469;28;20037;-88
2023/09/23 04:05:16;;;;;;;8.35;3.72;;;14.80;99.90;;;-144.05;81.34;56952.91;5078774;28;20025;-85
2023/09/23 04:07:49;;;;;;;4.80;3.00;;;9.10;99.90;;;-144.05;80.96;56925.28;5078372;28;20482;-85
2023/09/23 04:10:22;;;;;;;4.97;3.22;;;14.40;99.90;;;-144.05;80.54;56942.28;5078215;28;20040;-87
2023/09/23 04:12:50;;;;;;;10.02;3.38;;;;;;;-144.05;81.05;56918.94;5083975;28;20075;-86
2023/09/23 04:15:18;;;;;;;5.68;3.50;;;14.70;99.90;;;-144.05;81.11;56925.28;5084303;28;20028;-87
2023/09/23 04:17:44;;;;;;;8.98;3.53;;;12.10;99.90;;;-144.05;81.66;56933.78;5086743;28;20059;-85
2023/09/23 04:20:10;;;;;;;10.50;3.80;;;15.10;99.90;;;-144.05;81.93;56942.28;5087067;28;20452;-87
2023/09/23 04:22:38;;;;;;;10.55;3.65;;;14.70;99.90;;;-144.05;81.49;56921.06;5081177;28;20067;-89
2023/09/23 04:25:06;;;;;;;8.63;3.65;;;14.70;99.90;;;-144.05;81.26;56925.28;5082474;28;20339;-87
2023/09/23 04:27:33;;;;;;;10.10;3.60;;;15.00;99.90;;;-144.05;82.26;56916.81;5081625;28;20055;-87
2023/09/23 04:30:11;;;;;;;6.93;3.58;;;14.70;99.90;;;-144.05;81.32;56940.16;5082305;28;20462;-88
2023/09/23 04:32:42;;;;;;;9.90;3.35;;;9.10;99.90;;;-144.05;80.89;56927.41;5098536;28;20518;-88
2023/09/23 04:35:15;;;;;;;5.78;2.78;;;9.70;99.90;;;-144.05;81.34;56925.28;5094793;28;20406;-86
2023/09/23 04:37:42;;;;;;;7.20;3.30;;;;;;;-144.05;80.71;56929.53;5092411;28;20029;-88
2023/09/23 04:40:11;;;;;;;6.22;2.97;;;8.80;99.90;;;-144.05;80.30;56931.66;5104602;28;20023;-83
2023/09/23 04:42:43;;;;;;;5.97;2.58;;;9.70;99.90;;;-144.05;80.72;56948.66;5112393;28;20029;-83
2023/09/23 04:45:11;;;;;;;9.27;2.92;;;14.80;99.90;;;-144.05;80.40;56912.56;5110964;28;20055;-85
2023/09/23 04:47:39;;;;;;;5.20;2.83;;;11.60;99.90;;;-144.05;80.38;56925.28;5093087;28;20052;-83
2023/09/23 04:50:12;;;;;;;4.63;2.55;;;14.60;99.90;;;-144.05;81.12;56923.19;5091672;28;20568;-88
2023/09/23 04:52:38;;;;;;;7.75;2.92;;;9.80;99.90;;;-144.05;80.77;56942.28;5082981;28;20079;-87
2023/09/23 04:55:06;;;;;;;4.35;2.90;;;14.40;99.90;;;-144.05;80.50;56942.28;5090429;28;20036;-88
2023/09/23 04:57:35;;;;;;;9.68;2.65;;;8.90;99.90;;;-144.05;80.11;56921.06;5064123;28;20468;-86
2023/09/23 05:00:04;;;;;;;4.75;2.50;;;14.70;99.90;;;-144.05;79.46;56931.66;5069592;28;20029;-88
2023/09/23 05:02:30;;;;;;;10.23;2.90;;;15.00;99.90;;;-144.05;79.64;56944.41;5072816;28;20041;-88
2023/09/23 05:04:56;;;;;;;3.85;2.35;;;14.30;99.90;;;-144.05;79.74;56931.66;5070493;28;20083;-89
2023/09/23 05:07:26;;;;;;;7.25;2.58;;;9.30;99.90;;;-144.05;79.90;56929.53;5070269;28;20407;-89
2023/09/23 05:09:55;;;;;;;8.13;2.40;;;14.70;99.90;;;-144.05;80.04;56918.94;5092124;28;20592;-88
2023/09/23 05:12:22;;;;;;;6.22;2.47;;;;;;;-144.05;79.83;56944.41;5088717;28;20507;-90
2023/09/23 05:14:48;;;;;;;7.80;2.72;;;15.10;99.90;;;-144.05;79.16;56935.91;5072298;28;20071;-90
2023/09/23 05:17:15;;;;;;;7.70;3.15;;;15.20;99.90;;;-144.05;79.08;56933.78;5089318;28;20024;-89
2023/09/23 05:19:47;;;;;;;6.45;2.50;;;14.60;99.90;;;-144.05;79.28;56933.78;5070090;28;20079;-87
2023/09/23 05:22:13;;;;;;;7.95;2.80;;;12.00;99.90;;;-144.05;78.93;56938.03;5070773;28;20390;-88
2023/09/23 05:24:41;;;;;;;8.20;3.13;;;9.50;99.90;;;-144.05;78.73;56918.94;5076996;28;20490;-84
2023/09/23 05:27:07;;;;;;;8.80;3.17;;;;;;;-144.05;78.47;56921.06;5075704;28;20028;-87
2023/09/23 05:29:33;;;;;;;5.55;2.67;;;15.00;99.90;;;-144.05;78.83;56940.16;5092685;28;20055;-86
2023/09/23 05:32:00;;;;;;;4.68;2.72;;;;;;;-144.05;78.55;56933.78;5088234;28;20029;-85
2023/09/23 05:34:27;;;;;;;11.02;3.38;;;12.20;99.90;;;-144.05;78.91;56946.53;5069877;28;20082;-88
2023/09/23 05:36:52;;;;;;;8.45;2.83;;;9.20;99.90;;;-144.05;78.02;56940.16;5071795;28;20040;-88
2023/09/23 05:39:19;;;;;;;6.45;3.08;;;14.80;99.90;;;-144.05;77.71;56901.94;5075667;28;20025;-87
2023/09/23 05:41:51;;;;;;;5.85;2.95;;;14.80;99.90;;;-144.05;78.10;56950.78;5110636;28;20077;-87
2023/09/23 05:44:18;;;;;;;7.95;3.15;;;15.00;99.90;;;-144.05;77.48;56935.91;5075923;28;20119;-85
2023/09/23 05:46:46;;;;;;;6.65;2.97;;;9.70;99.90;;;-144.05;77.34;56925.28;5075502;28;20044;-85
2023/09/23 05:49:15;;;;;;;10.18;3.53;;;14.80;99.90;;;-144.05;77.58;56944.41;5092720;28;20059;-84
2023/09/23 05:51:40;;;;;;;7.13;3.35;;;10.30;99.90;;;-144.05;77.49;56948.66;5071932;28;20581;-86
2023/09/23 05:54:09;;;;;;;6.10;3.38;;;12.40;99.90;;;-144.05;77.73;56923.19;5072512;28;20059;-85
2023/09/23 05:56:36;;;;;;;9.77;3.17;;;;;;;-144.05;77.09;56929.53;5093462;28;20035;-86
2023/09/23 05:59:02;;;;;;;7.85;3.58;;;14.60;99.90;;;-144.05;76.84;56933.78;5110627;28;20166;-82
2023/09/23 06:01:28;;;;;;;6.40;3.30;;;10.20;99.90;;;-144.05;77.09;56950.78;5076148;28;20048;-85
2023/09/23 06:03:53;;;;;;;9.98;3.67;;;15.10;99.90;;;-144.05;77.26;56933.78;5078659;28;20460;-85
2023/09/23 06:06:19;;;;;;;6.50;3.15;;;10.30;99.90;;;-144.05;76.64;56921.06;5076010;28;20055;-87
2023/09/23 06:08:50;;;;;;;8.93;3.63;;;12.40;99.90;;;-144.05;77.07;56959.28;5094096;28;20359;-87
2023/09/23 06:11:17;;;;;;;8.68;3.40;;;;;;;-144.05;76.47;56901.94;5075589;28;20430;-86
2023/09/23 06:13:43;;;;;;;9.75;3.40;;;;;;;-144.05;76.46;56912.56;5079698;28;20104;-87
2023/09/23 06:16:10;;;;;;;6.97;3.70;;;;;;;-144.05;76.72;56906.19;5095153;28;20140;-90
2023/09/23 06:18:39;;;;;;;5.38;3.30;;;;;;;-144.05;76.14;56933.78;5078139;28;20032;-89
2023/09/23 06:21:06;;;;;;;4.50;2.80;;;;;;;-144.05;75.68;56938.03;5106253;28;20032;-84
2023/09/23 06:23:32;;;;;;;4.60;3.35;;;12.50;99.90;;;-144.05;76.59;56942.28;5118889;28;20081;-86
2023/09/23 06:26:04;;;;;;;5.45;3.05;;;14.90;99.90;;;-144.05;76.09;56933.78;5093450;28;20119;-85
2023/09/23 06:28:30;;;;;;;5.68;3.13;;;15.00;99.90;;;-144.05;75.70;56948.66;5094836;28;20446;-85
2023/09/23 06:30:56;;;;;;;9.73;3.22;;;12.60;99.90;;;-144.05;75.52;56948.66;5078774;28;20028;-85
2023/09/23 06:33:24;;;;;;;7.53;3.15;;;14.70;99.90;;;-144.05;75.46;56918.94;5093629;28;20039;-87
2023/09/23 06:35:50;;;;;;;9.00;3.13;;;15.30;99.90;;;-144.05;75.19;56923.19;5093810;28;20059;-87
2023/09/23 06:38:17;;;;;;;8.00;2.72;;;15.20;99.90;;;-144.05;74.86;56929.53;5076791;28;20047;-87
2023/09/23 06:40:43;;;;;;;5.57;3.17;;;15.30;99.90;;;-144.05;75.44;56946.53;5076341;28;20025;-84
2023/09/23 06:43:09;;;;;;;9.88;3.30;;;;;;;-144.05;74.98;56927.41;5073305;28;20090;-84
2023/09/23 06:45:35;;;;;;;3.58;2.90;;;14.90;99.90;;;-144.05;74.26;56933.78;5076816;28;20040;-85
2023/09/23 06:48:03;;;;;;;6.53;2.70;;;14.60;99.90;;;-144.05;74.83;56927.41;5076113;28;20078;-86
2023/09/23 06:50:29;;;;;;;7.38;3.03;;;;;;;-144.05;74.16;56914.69;5076358;28;20029;-83
2023/09/23 06:52:55;;;;;;;8.80;3.42;;;;;;;-144.05;75.24;56914.69;5092172;28;20077;-86
2023/09/23 06:55:21;;;;;;;5.10;3.15;;;10.30;99.90;;;-144.05;75.21;56921.06;5092434;28;20089;-85
2023/09/23 06:57:47;;;;;;;5.57;2.53;;;10.70;99.90;;;-144.05;74.71;56948.66;5072519;28;20086;-86
2023/09/23 07:00:14;;;;;;;5.97;2.58;;;10.80;99.90;;;-144.05;75.24;56952.91;5073274;28;20215;-84
2023/09/23 07:02:39;;;;;;;5.88;2.47;;;14.80;99.90;;;-144.05;75.79;56944.41;5075740;28;20383;-86
2023/09/23 07:05:06;;;;;;;8.48;3.55;;;12.80;99.90;;;-144.05;75.34;56942.28;5077269;28;20027;-85
2023/09/23 07:07:32;;;;;;;7.35;3.30;;;14.80;99.90;;;-144.05;75.92;56957.16;5077456;28;20024;-85
2023/09/23 07:09:58;;;;;;;6.57;3.00;;;14.70;99.90;;;-144.05;74.76;56918.94;5089365;28;20094;-87
2023/09/23 07:12:24;;;;;;;7.10;3.38;;;12.80;99.90;;;-144.05;74.65;56938.03;5076179;28;20024;-84
2023/09/23 07:14:49;;;;;;;6.88;2.63;;;15.00;99.90;;;-144.05;75.10;56935.91;5077546;28;20033;-85
2023/09/23 07:17:17;;;;;;;5.70;3.22;;;;;;;-144.05;74.84;56925.28;5078565;28;20032;-84
2023/09/23 07:19:47;;;;;;;4.45;2.90;;;15.10;99.90;;;-144.05;74.41;56931.66;5078182;28;20119;-86
2023/09/23 07:22:13;;;;;;;6.63;3.00;;;14.80;99.90;;;-144.05;74.56;56933.78;5077855;28;20051;-86
2023/09/23 07:24:39;;;;;;;5.15;3.05;;;;;;;-144.05;74.24;56938.03;5092124;28;20562;-85
2023/09/23 07:27:05;;;;;;;6.05;3.10;;;13.00;99.90;;;-144.05;74.91;56916.81;5076816;28;20060;-84
2023/09/23 07:29:33;;;;;;;6.22;2.85;;;13.00;99.90;;;-144.05;74.63;56935.91;5088662;28;20036;-86
2023/09/23 07:31:58;;;;;;;8.50;3.55;;;15.30;99.90;;;-144.05;74.27;56927.41;5070649;28;20036;-86
2023/09/23 07:34:25;;;;;;;9.15;3.10;;;;;;;-144.05;73.84;56965.66;5076913;28;20024;-85
2023/09/23 07:36:51;;;;;;;6.20;2.90;;;13.00;99.90;;;-144.05;74.01;56925.28;5074759;28;20442;-86
2023/09/23 07:39:17;;;;;;;6.82;3.00;;;;;;;-144.05;73.79;56944.41;5075463;28;20504;-87
2023/09/23 07:41:45;;;;;;;6.18;2.70;;;14.50;99.90;;;-144.05;73.47;56929.53;5110395;28;20028;-84
2023/09/23 07:44:12;;;;;;;6.78;3.00;;;;;;;-144.05;73.17;56931.66;5092172;28;20041;-85
2023/09/23 07:46:38;;;;;;;5.97;3.03;;;;;;;-144.05;73.08;56959.28;5073322;28;20032;-88
2023/09/23 07:49:04;;;;;;;4.53;2.53;;;14.90;99.90;;;-144.05;72.56;56931.66;5087105;28;20115;-83
2023/09/23 07:51:30;;;;;;;8.20;2.92;;;13.40;99.90;;;-144.05;72.24;56912.56;5076019;28;20063;-85
2023/09/23 07:53:56;;;;;;;6.00;2.50;;;15.00;99.90;;;-144.05;72.78;56914.69;5075716;28;20016;-85
2023/09/23 07:56:22;;;;;;;9.02;3.05;;;13.30;99.90;;;-144.05;72.90;56946.53;5075057;28;20025;-86
2023/09/23 07:58:48;;;;;;;6.85;3.25;;;;;;;-144.05;72.86;56929.53;5091205;28;20032;-85
2023/09/23 08:01:15;;;;;;;6.07;2.80;;;;;;;-144.05;72.95;56921.06;5070739;28;20029;-83
2023/09/23 08:03:41;;;;;;;6.97;2.40;;;11.10;99.90;;;-144.05;72.25;56940.16;5058693;28;20071;-85
2023/09/23 08:06:07;;;;;;;4.43;2.40;;;15.30;99.90;;;-144.05;72.07;56929.53;5077679;28;20389;-83
2023/09/23 08:08:33;;;;;;;4.40;2.13;;;14.80;99.90;;;-144.05;71.91;56940.16;5074984;28;20032;-82
2023/09/23 08:10:58;;;;;;;6.47;2.55;;;13.40;99.90;;;-144.05;72.09;56942.28;5072995;28;20509;-80
2023/09/23 08:13:26;;;;;;;5.53;2.30;;;11.90;99.90;;;-144.05;72.38;56933.78;5106930;28;20066;-86
2023/09/23 08:16:00;;;;;;;7.45;2.45;;;13.50;99.90;;;-144.05;72.52;56935.91;5072260;28;20048;-85
2023/09/23 08:18:26;;;;;;;4.38;3.00;;;10.60;99.90;;;-144.05;72.83;56931.66;5072020;28;20386;-84
2023/09/23 08:21:00;;;;;;;6.85;2.80;;;15.20;99.90;;;-144.05;72.18;56904.06;5075833;28;20028;-86
2023/09/23 08:23:26;;;;;;;5.18;2.13;;;15.40;99.90;;;-144.05;72.09;56946.53;5080581;28;20028;-85
2023/09/23 08:25:54;;;;;;;5.03;2.78;;;14.80;99.90;;;-144.05;71.74;56942.28;5099658;28;20047;-89
2023/09/23 08:28:20;;;;;;;4.78;2.17;;;14.70;99.90;;;-144.05;71.32;56963.53;5074737;28;20055;-85
2023/09/23 08:30:48;;;;;;;5.15;2.17;;;;;;;-144.05;71.48;56948.66;5090487;28;20032;-85
2023/09/23 08:33:14;;;;;;;6.93;2.78;;;;;;;-144.05;71.12;56942.28;5071200;28;20041;-86
2023/09/23 08:35:41;;;;;;;8.45;2.50;;;15.30;99.90;;;-144.05;71.97;56933.78;5055708;28;20088;-87
2023/09/23 08:38:08;;;;;;;5.60;2.30;;;15.10;99.90;;;-144.05;72.29;56925.28;5070272;28;20033;-83
2023/09/23 08:40:36;;;;;;;7.63;2.65;;;13.70;99.90;;;-144.05;72.06;56935.91;5075920;28;20025;-85
2023/09/23 08:43:05;;;;;;;5.30;2.22;;;13.80;99.90;;;-144.05;71.20;56948.66;5095822;28;20162;-87
2023/09/23 08:45:32;;;;;;;6.75;2.30;;;15.50;99.90;;;-144.05;70.34;56942.28;5092803;28;20037;-85
2023/09/23 08:48:00;;;;;;;5.22;2.08;;;14.10;99.90;;;-144.05;70.12;56933.78;5083071;28;20474;-88
2023/09/23 08:50:27;;;;;;;6.53;2.67;;;15.80;99.90;;;-144.05;70.63;56940.16;5079279;28;20028;-88
2023/09/23 08:52:55;;;;;;;6.40;2.65;;;;;;;-144.05;69.11;56904.06;5084862;28;20035;-87
2023/09/23 08:55:24;;;;;;;6.25;2.45;;;14.50;99.90;;;-144.05;69.83;56935.91;5077378;28;20033;-86
2023/09/23 08:57:50;;;;;;;4.07;2.33;;;16.10;99.90;;;-144.05;68.94;56931.66;5075754;28;20025;-86
2023/09/23 09:00:18;;;;;;;10.18;3.00;;;14.70;99.90;;;-144.05;69.51;56923.19;5080058;28;20029;-86
2023/09/23 09:02:44;;;;;;;5.90;2.38;;;;;;;-144.05;68.41;56908.31;5084626;28;20082;-83
2023/09/23 09:05:10;;;;;;;4.47;2.42;;;16.10;99.90;;;-144.05;68.19;56938.03;5082774;28;20021;-87
2023/09/23 09:07:38;;;;;;;5.50;2.15;;;13.30;99.90;;;-144.05;67.24;56925.28;5077222;28;20074;-84
2023/09/23 09:10:06;;;;;;;4.32;2.25;;;16.30;99.90;;;-144.05;66.43;56944.41;5077050;28;20029;-88
2023/09/23 09:12:34;;;;;;;4.35;2.55;;;16.50;99.90;;;-144.05;65.64;56921.06;5079567;28;20092;-86
2023/09/23 09:15:00;;;;;;;5.13;2.70;;;15.20;99.90;;;-144.05;65.86;56940.16;5080977;28;20020;-87
2023/09/23 09:17:26;;;;;;;5.10;2.40;;;16.70;99.90;;;-144.05;65.29;56931.66;5079880;28;20509;-86
2023/09/23 09:19:54;;;;;;;7.13;2.80;;;15.40;99.90;;;-144.05;64.60;56923.19;5082457;28;20032;-82
2023/09/23 09:22:20;;;;;;;5.25;2.63;;;;;;;-144.05;63.96;56923.19;5082690;28;20025;-88
2023/09/23 09:24:49;;;;;;;5.45;2.50;;;17.40;99.90;;;-144.05;62.91;56959.28;5083267;28;20021;-86
2023/09/23 09:27:15;;;;;;;5.97;2.55;;;17.50;99.90;;;-144.05;63.15;56942.28;5084514;28;20023;-88
2023/09/23 09:29:43;;;;;;;5.82;2.65;;;16.00;99.90;;;-144.05;63.53;56948.66;5083136;28;20024;-88
2023/09/23 09:32:10;;;;;;;5.10;2.03;;;16.60;99.90;;;-144.05;63.56;56925.28;5083405;28;20084;-86
2023/09/23 09:34:47;;;;;;;7.97;1.90;;;15.50;99.90;;;-144.05;63.33;56921.06;5099708;28;20021;-83
2023/09/23 09:37:15;;;;;;;8.38;1.95;;;15.40;99.90;;;-144.05;65.07;56935.91;5080164;28;20033;-84
2023/09/23 09:39:58;;;;;;;7.63;2.28;;;15.60;99.90;;;-144.05;65.19;56948.66;5082475;28;20047;-88
2023/09/23 09:42:30;;;;;;;5.63;2.03;;;15.40;99.90;;;-144.05;64.29;56944.41;5081897;28;20044;-88
2023/09/23 09:44:57;;;;;;;4.50;1.50;;;16.50;99.90;;;-144.05;64.28;56959.28;5082260;28;20028;-89
2023/09/23 09:47:23;;;;;;;4.00;1.48;;;16.60;99.90;;;-144.05;63.99;56933.78;5095746;28;20029;-81
2023/09/23 09:49:54;;;;;;;4.43;1.60;;;16.80;99.90;;;-144.05;64.14;56931.66;5083819;28;20032;-85
2023/09/23 09:52:26;;;;;;;4.72;1.73;;;17.00;99.90;;;-144.05;63.06;56946.53;5078879;28;20123;-86
2023/09/23 09:54:57;;;;;;;5.47;1.65;;;15.80;99.90;;;-144.05;63.41;56944.41;5081661;28;20535;-84
2023/09/23 09:57:29;;;;;;;5.13;1.35;;;15.70;99.90;;;-144.05;62.27;56955.03;5080134;28;20086;-84
2023/09/23 10:00:00;;;;;;;2.38;1.52;;;14.80;99.90;;;-144.05;62.43;56935.91;5078406;28;20025;-85
2023/09/23 10:02:28;;;;;;;4.28;1.55;;;14.60;99.90;;;-144.05;61.52;56927.41;5078840;28;21479;-87
2023/09/23 10:04:53;;;;;;;2.88;1.63;;;15.40;99.90;;;-144.05;59.34;56961.41;5076470;28;20089;-87
2023/09/23 10:07:22;;;;;;;3.55;1.35;;;16.90;99.90;;;-144.05;58.78;56944.41;5077825;28;20547;-90
2023/09/23 10:09:55;;;;;;;4.20;1.38;;;16.90;99.90;;;-144.05;58.59;56942.28;5079627;28;20078;-86
2023/09/23 10:12:31;;;;;;;5.72;1.30;;;17.20;99.90;;;-144.05;58.97;56925.28;5077232;28;20116;-86
2023/09/23 10:15:01;;;;;;;7.25;1.30;;;19.00;99.90;;;-144.05;57.72;56942.28;5078402;28;20051;-87
2023/09/23 10:17:31;;;;;;;3.78;1.10;;;19.50;99.90;;;-144.05;56.16;56938.03;5079076;28;20094;-87
2023/09/23 10:19:57;;;;;;;3.10;1.00;;;;;;;-144.05;53.26;56948.66;5079556;28;20063;-88
2023/09/23 10:22:28;;;;;;;3.15;0.90;;;;;;;-144.05;51.95;56978.41;5081427;28;20033;-87
2023/09/23 10:25:04;;;;;;;2.17;1.02;;;19.30;99.90;;;-144.05;52.92;56955.03;5080441;28;20063;-87
2023/09/23 10:27:32;;;;;;;3.80;1.10;;;15.80;99.90;;;-144.05;54.48;56946.53;5091035;28;20027;-88